Time;durP1;ratioP1;P1;durP2;ratioP2;P2;SDS_P1;SDS_P2;PMS_P1;PMS_P2;Temp;Humidity;BMP_temperature;BMP_pressure;BME280_temperature;BME280_humidity;BME280_pressure;Samples;Min_cycle;Max_cycle;Signal;HPM_P1;HPM_P2
2022/07/07 00:00:55;;;;;;;7.30;3.40;;;10.20;97.70;;;;;;5114800;27;20420;-64
2022/07/07 00:03:21;;;;;;;5.57;3.70;;;10.10;97.80;;;;;;5118349;27;20032;-65
2022/07/07 00:05:46;;;;;;;6.35;3.78;;;10.10;97.80;;;;;;5116850;27;20023;-64
2022/07/07 00:08:12;;;;;;;6.20;3.53;;;10.10;98.00;;;;;;5113719;27;20058;-65
2022/07/07 00:10:38;;;;;;;6.30;3.22;;;10.20;98.00;;;;;;5117481;27;20099;-65
2022/07/07 00:13:03;;;;;;;6.05;3.22;;;10.30;98.00;;;;;;5115295;27;20114;-65
2022/07/07 00:15:29;;;;;;;6.10;3.15;;;10.30;97.90;;;;;;5119988;27;20031;-64
2022/07/07 00:17:55;;;;;;;7.32;3.20;;;10.30;97.90;;;;;;5114808;27;20042;-65
2022/07/07 00:20:20;;;;;;;6.55;2.70;;;10.30;97.90;;;;;;5113396;27;20144;-65
2022/07/07 00:22:46;;;;;;;6.63;2.58;;;10.30;97.90;;;;;;5114707;27;20327;-65
2022/07/07 00:25:12;;;;;;;6.20;3.10;;;10.30;97.90;;;;;;5118755;27;20078;-65
2022/07/07 00:27:37;;;;;;;5.70;3.30;;;10.30;97.90;;;;;;5115134;27;21413;-65
2022/07/07 00:30:05;;;;;;;5.45;3.22;;;10.20;97.80;;;;;;5115361;27;20047;-65
2022/07/07 00:32:33;;;;;;;5.22;3.13;;;10.10;98.00;;;;;;5114339;27;20443;-65
2022/07/07 00:34:59;;;;;;;6.22;3.33;;;10.10;98.00;;;;;;5116106;27;20062;-64
2022/07/07 00:37:24;;;;;;;5.35;3.40;;;10.10;98.00;;;;;;5113980;27;20321;-64
2022/07/07 00:39:50;;;;;;;6.45;3.10;;;10.10;98.00;;;;;;5118211;27;20066;-65
2022/07/07 00:42:16;;;;;;;5.47;3.08;;;10.10;98.00;;;;;;5112804;28;20054;-64
2022/07/07 00:44:43;;;;;;;5.80;3.10;;;10.00;98.00;;;;;;5116226;28;20082;-65
2022/07/07 00:47:09;;;;;;;7.53;3.45;;;9.90;98.00;;;;;;5113437;27;20024;-64
2022/07/07 00:49:38;;;;;;;10.55;4.07;;;9.90;98.00;;;;;;5113831;27;20034;-64
2022/07/07 00:52:06;;;;;;;6.60;3.20;;;9.90;98.00;;;;;;5114600;28;20043;-64
2022/07/07 00:54:34;;;;;;;5.93;2.88;;;10.00;98.00;;;;;;5115048;27;20056;-64
2022/07/07 00:57:00;;;;;;;9.13;3.50;;;10.10;98.00;;;;;;5117691;27;20084;-63
2022/07/07 00:59:26;;;;;;;6.03;3.08;;;10.10;98.00;;;;;;5113441;28;20031;-64
2022/07/07 01:01:53;;;;;;;7.20;3.42;;;10.10;98.00;;;;;;5112955;27;20023;-65
2022/07/07 01:04:19;;;;;;;9.50;3.90;;;10.10;98.00;;;;;;5113585;27;20031;-66
2022/07/07 01:06:44;;;;;;;7.68;3.40;;;10.10;98.00;;;;;;5116171;27;20061;-66
2022/07/07 01:09:10;;;;;;;10.05;3.30;;;10.10;98.00;;;;;;5114995;27;20023;-65
2022/07/07 01:11:48;;;;;;;5.97;3.35;;;10.10;98.00;;;;;;5117485;27;20024;-65
2022/07/07 01:14:15;;;;;;;10.30;3.25;;;10.10;98.00;;;;;;5112347;27;20031;-64
2022/07/07 01:16:40;;;;;;;9.23;3.38;;;10.20;98.00;;;;;;5122642;27;20030;-65
2022/07/07 01:19:06;;;;;;;6.65;3.38;;;10.30;98.00;;;;;;5114084;27;20027;-64
2022/07/07 01:21:38;;;;;;;6.20;2.92;;;10.40;97.90;;;;;;5112735;27;20023;-64
2022/07/07 01:24:04;;;;;;;8.15;3.05;;;10.40;97.80;;;;;;5113560;27;20053;-63
2022/07/07 01:26:31;;;;;;;9.25;3.13;;;10.40;97.90;;;;;;5115885;27;20075;-64
2022/07/07 01:28:56;;;;;;;6.20;3.13;;;10.40;97.90;;;;;;5117557;27;20034;-64
2022/07/07 01:31:25;;;;;;;7.97;2.70;;;10.50;97.90;;;;;;5112937;27;20019;-64
2022/07/07 01:33:50;;;;;;;5.95;2.75;;;10.50;97.70;;;;;;5121670;27;20429;-64
2022/07/07 01:36:16;;;;;;;8.00;2.78;;;10.50;97.70;;;;;;5115119;27;20051;-64
2022/07/07 01:38:42;;;;;;;7.20;2.50;;;10.60;97.50;;;;;;5115985;27;20030;-64
2022/07/07 01:41:07;;;;;;;9.00;2.55;;;10.70;97.40;;;;;;5115963;27;20394;-65
2022/07/07 01:43:33;;;;;;;6.25;2.80;;;10.80;97.10;;;;;;5119668;27;20476;-64
2022/07/07 01:45:59;;;;;;;4.85;2.45;;;11.00;96.80;;;;;;5113484;27;20016;-64
2022/07/07 01:48:24;;;;;;;7.78;2.50;;;11.10;96.60;;;;;;5114217;28;20324;-64
2022/07/07 01:50:50;;;;;;;7.38;2.90;;;11.10;96.30;;;;;;5116369;27;20032;-65
2022/07/07 01:53:16;;;;;;;5.10;2.40;;;11.10;96.70;;;;;;5115754;27;20046;-64
2022/07/07 01:55:41;;;;;;;6.43;2.60;;;11.10;97.00;;;;;;5116521;27;20043;-64
2022/07/07 01:58:07;;;;;;;5.57;2.42;;;11.20;96.70;;;;;;5112727;28;20051;-64
2022/07/07 02:00:33;;;;;;;6.53;2.70;;;11.20;96.50;;;;;;5115394;27;20433;-64
2022/07/07 02:02:58;;;;;;;8.93;2.53;;;11.30;96.40;;;;;;5110735;27;20035;-64
2022/07/07 02:05:24;;;;;;;5.05;2.75;;;11.40;96.10;;;;;;5115534;27;20030;-63
2022/07/07 02:07:53;;;;;;;5.63;2.22;;;11.40;96.20;;;;;;5115313;28;20025;-64
2022/07/07 02:13:04;;;;;;;5.60;2.30;;;11.40;96.40;;;;;;5118011;28;20089;-65
2022/07/07 02:15:30;;;;;;;5.47;2.30;;;11.40;96.10;;;;;;5109034;28;20040;-64
2022/07/07 02:17:56;;;;;;;6.75;2.55;;;11.40;96.20;;;;;;5111788;28;20027;-64
2022/07/07 02:20:22;;;;;;;9.98;2.47;;;11.40;96.40;;;;;;5112589;28;20023;-63
2022/07/07 02:22:48;;;;;;;9.30;2.30;;;11.30;96.50;;;;;;5112696;28;20039;-63
2022/07/07 02:25:14;;;;;;;6.28;2.80;;;11.30;96.60;;;;;;5120077;28;20019;-64
2022/07/07 02:27:39;;;;;;;6.68;2.63;;;11.30;96.80;;;;;;5114219;28;20023;-64
2022/07/07 02:30:07;;;;;;;5.13;2.50;;;11.30;96.80;;;;;;5111376;28;20302;-64
2022/07/07 02:32:33;;;;;;;4.93;2.45;;;11.20;96.70;;;;;;5111728;28;20039;-64
2022/07/07 02:34:58;;;;;;;6.45;2.40;;;11.10;96.80;;;;;;5108260;28;20375;-64
2022/07/07 02:37:27;;;;;;;5.03;2.63;;;11.00;97.20;;;;;;5107490;28;20055;-64
2022/07/07 02:39:53;;;;;;;6.00;2.85;;;10.90;97.50;;;;;;5112765;28;20145;-64
2022/07/07 02:42:19;;;;;;;5.93;2.60;;;10.90;97.50;;;;;;5118491;28;20110;-63
2022/07/07 02:44:44;;;;;;;6.32;2.70;;;10.90;97.30;;;;;;5119263;27;20355;-64
2022/07/07 02:47:10;;;;;;;6.95;2.83;;;10.90;97.20;;;;;;5112269;27;20369;-64
2022/07/07 02:49:35;;;;;;;6.82;3.25;;;10.80;97.40;;;;;;5115561;27;20030;-64
2022/07/07 02:52:03;;;;;;;5.82;2.70;;;10.60;97.60;;;;;;5119118;27;20028;-64
2022/07/07 02:54:29;;;;;;;8.60;3.85;;;10.50;97.80;;;;;;5107337;27;20059;-64
2022/07/07 02:56:54;;;;;;;7.05;3.08;;;10.40;98.00;;;;;;5118203;27;20059;-64
2022/07/07 02:59:20;;;;;;;7.00;3.10;;;10.30;98.00;;;;;;5118685;27;20079;-64
2022/07/07 03:01:45;;;;;;;6.95;3.20;;;10.30;98.00;;;;;;5119993;27;20059;-64
2022/07/07 03:04:11;;;;;;;7.50;3.00;;;10.30;98.00;;;;;;5111808;28;20019;-64
2022/07/07 03:06:37;;;;;;;6.97;2.78;;;10.40;98.00;;;;;;5112461;28;20107;-64
2022/07/07 03:09:03;;;;;;;7.25;2.65;;;10.50;98.00;;;;;;5108520;27;20024;-63
2022/07/07 03:11:28;;;;;;;6.78;2.60;;;10.60;97.70;;;;;;5113448;27;20032;-64
2022/07/07 03:13:54;;;;;;;5.85;2.60;;;10.70;97.60;;;;;;5112174;27;20031;-64
2022/07/07 03:16:20;;;;;;;4.93;2.60;;;10.80;97.70;;;;;;5111445;27;20023;-65
2022/07/07 03:18:45;;;;;;;5.40;2.53;;;10.80;97.70;;;;;;5114836;27;20032;-64
2022/07/07 03:21:11;;;;;;;5.03;2.60;;;10.90;97.60;;;;;;5109565;27;20062;-64
2022/07/07 03:23:36;;;;;;;8.13;2.60;;;10.90;97.60;;;;;;5116286;27;20343;-64
2022/07/07 03:26:02;;;;;;;6.95;2.60;;;11.00;97.60;;;;;;5117638;27;20043;-65
2022/07/07 03:28:28;;;;;;;7.55;2.42;;;11.10;96.80;;;;;;5110879;27;20110;-64
2022/07/07 03:30:53;;;;;;;4.47;2.40;;;11.20;96.70;;;;;;5117015;27;20428;-64
2022/07/07 03:33:19;;;;;;;5.88;2.55;;;11.30;96.80;;;;;;5115699;28;20304;-64
2022/07/07 03:35:44;;;;;;;7.30;2.30;;;11.40;96.60;;;;;;5105266;27;20402;-65
2022/07/07 03:38:10;;;;;;;4.72;2.40;;;11.40;96.90;;;;;;5110687;27;20436;-64
2022/07/07 03:40:36;;;;;;;6.00;2.47;;;11.50;97.00;;;;;;5114044;27;20028;-65
2022/07/07 03:43:02;;;;;;;6.13;2.58;;;11.50;97.00;;;;;;5111746;27;20324;-65
2022/07/07 03:45:27;;;;;;;5.80;2.50;;;11.40;96.90;;;;;;5122459;27;20039;-63
2022/07/07 03:47:53;;;;;;;4.93;2.35;;;11.40;97.10;;;;;;5115433;27;20027;-64
2022/07/07 03:50:19;;;;;;;5.75;2.53;;;11.50;97.00;;;;;;5117824;27;20027;-63
2022/07/07 03:52:44;;;;;;;4.70;2.35;;;11.50;96.90;;;;;;5116542;28;20038;-63
2022/07/07 03:55:10;;;;;;;5.60;2.65;;;11.60;96.70;;;;;;5115613;28;20024;-64
2022/07/07 03:57:39;;;;;;;8.93;3.05;;;11.50;96.60;;;;;;5107831;28;20028;-65
2022/07/07 04:00:05;;;;;;;7.07;3.00;;;11.40;97.00;;;;;;5119222;27;20106;-65
2022/07/07 04:02:31;;;;;;;5.38;2.60;;;11.40;97.10;;;;;;5118363;27;20311;-65
2022/07/07 04:04:57;;;;;;;5.90;2.90;;;11.50;97.30;;;;;;5115072;27;20027;-65
2022/07/07 04:07:22;;;;;;;6.43;3.10;;;11.50;97.30;;;;;;5115270;27;20027;-65
2022/07/07 04:09:48;;;;;;;5.70;2.63;;;11.50;97.50;;;;;;5110987;27;20366;-64
2022/07/07 04:12:14;;;;;;;5.95;2.90;;;11.50;97.10;;;;;;5116147;27;20024;-64
2022/07/07 04:14:39;;;;;;;7.70;3.95;;;11.50;97.20;;;;;;5111429;27;20463;-64
2022/07/07 04:17:05;;;;;;;9.00;5.38;;;11.50;97.30;;;;;;5117442;27;20080;-63
2022/07/07 04:19:31;;;;;;;6.60;3.72;;;11.60;96.90;;;;;;5116733;27;20348;-64
2022/07/07 04:21:56;;;;;;;7.30;3.17;;;11.60;97.00;;;;;;5118511;27;20028;-64
2022/07/07 04:24:22;;;;;;;5.47;2.78;;;11.70;96.80;;;;;;5114767;27;20431;-64
2022/07/07 04:26:48;;;;;;;6.45;2.55;;;11.70;96.70;;;;;;5115780;27;20023;-64
2022/07/07 04:29:14;;;;;;;5.75;2.17;;;11.80;96.30;;;;;;5121145;27;20072;-64
2022/07/07 04:31:44;;;;;;;5.22;2.13;;;11.90;95.40;;;;;;5120206;27;20035;-64
2022/07/07 04:34:13;;;;;;;4.22;2.13;;;12.10;94.80;;;;;;5115845;27;20106;-64
2022/07/07 04:36:39;;;;;;;5.22;2.42;;;12.20;94.90;;;;;;5115698;28;20102;-64
2022/07/07 04:39:05;;;;;;;4.72;2.97;;;12.20;95.70;;;;;;5120069;27;20023;-64
2022/07/07 04:41:30;;;;;;;9.15;3.40;;;12.00;96.10;;;;;;5117828;28;20357;-64
2022/07/07 04:43:56;;;;;;;7.38;3.50;;;11.90;96.70;;;;;;5111469;27;20328;-64
2022/07/07 04:46:22;;;;;;;7.07;3.05;;;11.90;96.90;;;;;;5116308;27;20016;-65
2022/07/07 04:48:47;;;;;;;6.43;2.80;;;11.80;97.00;;;;;;5107195;27;20019;-64
2022/07/07 04:51:13;;;;;;;5.38;2.83;;;11.80;97.20;;;;;;5119042;27;20050;-64
2022/07/07 04:53:38;;;;;;;5.03;3.00;;;11.70;97.30;;;;;;5112036;27;20024;-64
2022/07/07 04:56:04;;;;;;;6.07;3.00;;;11.80;97.60;;;;;;5116073;27;20023;-65
2022/07/07 04:58:30;;;;;;;5.90;2.70;;;11.80;97.60;;;;;;5118607;27;20019;-64
2022/07/07 05:00:56;;;;;;;8.52;3.30;;;11.80;97.60;;;;;;5113616;27;20080;-64
2022/07/07 05:03:21;;;;;;;5.82;3.30;;;11.80;97.70;;;;;;5021811;27;20338;-64
2022/07/07 05:05:47;;;;;;;5.50;2.72;;;11.90;97.70;;;;;;5119981;27;20323;-65
2022/07/07 05:08:13;;;;;;;6.53;3.00;;;12.00;97.60;;;;;;5110769;28;20020;-64
2022/07/07 05:10:38;;;;;;;4.93;2.35;;;12.10;97.90;;;;;;5115389;27;20024;-64
2022/07/07 05:13:05;;;;;;;7.25;2.60;;;12.20;97.70;;;;;;5110742;27;20037;-64
2022/07/07 05:15:31;;;;;;;4.50;2.60;;;12.40;97.40;;;;;;5119857;27;20023;-64
2022/07/07 05:17:56;;;;;;;5.75;2.72;;;12.60;97.40;;;;;;5114241;28;20077;-63
2022/07/07 05:20:22;;;;;;;7.85;3.88;;;12.60;97.10;;;;;;5117661;27;20350;-64
2022/07/07 05:22:48;;;;;;;6.03;2.90;;;12.50;97.10;;;;;;5111238;27;20019;-64
2022/07/07 05:25:13;;;;;;;6.78;3.20;;;12.40;97.00;;;;;;5122419;27;20031;-64
2022/07/07 05:27:39;;;;;;;6.75;3.15;;;12.40;97.30;;;;;;5117175;27;20027;-62
2022/07/07 05:30:06;;;;;;;7.40;2.97;;;12.40;97.30;;;;;;5115580;27;20046;-64
2022/07/07 05:32:32;;;;;;;5.07;2.65;;;12.40;97.60;;;;;;5114523;28;20282;-64
2022/07/07 05:34:58;;;;;;;6.70;2.20;;;12.60;97.00;;;;;;5108771;28;20035;-64
2022/07/07 05:37:23;;;;;;;8.75;2.28;;;12.80;95.50;;;;;;5112536;28;20027;-63
2022/07/07 05:39:49;;;;;;;5.10;2.05;;;13.10;94.20;;;;;;5111316;28;20027;-64
2022/07/07 05:42:15;;;;;;;6.82;2.17;;;13.30;93.70;;;;;;5114569;27;20022;-64
2022/07/07 05:44:41;;;;;;;6.82;2.10;;;13.60;91.40;;;;;;5117763;27;20049;-63
2022/07/07 05:47:07;;;;;;;4.88;2.00;;;13.90;89.60;;;;;;5113996;28;20031;-64
2022/07/07 05:49:32;;;;;;;4.40;2.03;;;14.20;87.70;;;;;;5114723;27;20023;-63
2022/07/07 05:51:58;;;;;;;5.75;2.08;;;14.50;86.70;;;;;;5109003;28;20035;-64
2022/07/07 05:54:24;;;;;;;6.40;1.85;;;14.80;86.30;;;;;;5114853;28;20063;-63
2022/07/07 05:56:50;;;;;;;6.13;1.85;;;15.00;85.90;;;;;;5120232;27;20064;-64
2022/07/07 05:59:15;;;;;;;6.78;2.38;;;15.20;86.40;;;;;;5115594;27;20075;-64
2022/07/07 06:01:41;;;;;;;4.88;1.85;;;15.30;84.10;;;;;;5122551;27;20028;-64
2022/07/07 06:04:06;;;;;;;5.45;2.00;;;15.40;84.50;;;;;;5115881;28;20034;-64
2022/07/07 06:06:32;;;;;;;4.20;1.88;;;15.60;83.80;;;;;;5115287;28;20030;-64
2022/07/07 06:08:58;;;;;;;6.07;2.08;;;15.70;83.10;;;;;;5113833;28;20031;-65
2022/07/07 06:11:23;;;;;;;8.38;2.38;;;15.80;82.70;;;;;;5116565;28;20047;-64
2022/07/07 06:13:49;;;;;;;5.43;1.98;;;15.90;82.90;;;;;;5116626;28;20024;-64
2022/07/07 06:16:15;;;;;;;4.10;1.60;;;16.10;82.70;;;;;;5116548;28;20024;-64
2022/07/07 06:18:40;;;;;;;4.85;1.85;;;16.30;82.30;;;;;;5112902;28;20024;-64
2022/07/07 06:21:06;;;;;;;6.18;1.98;;;16.50;82.80;;;;;;5110450;28;20016;-64
2022/07/07 06:23:32;;;;;;;5.15;1.98;;;16.70;80.10;;;;;;5114253;28;20089;-64
2022/07/07 06:26:02;;;;;;;9.82;2.20;;;16.70;80.90;;;;;;5114500;28;20031;-64
2022/07/07 06:28:28;;;;;;;6.68;2.50;;;16.50;80.90;;;;;;5116237;28;20054;-64
2022/07/07 06:30:54;;;;;;;55.47;45.83;;;16.50;81.70;;;;;;5116148;28;20028;-64
2022/07/07 06:33:20;;;;;;;5.13;2.63;;;16.60;81.60;;;;;;5114224;28;20049;-64
2022/07/07 06:35:45;;;;;;;5.95;2.28;;;16.60;81.60;;;;;;5116004;28;20020;-64
2022/07/07 06:38:11;;;;;;;7.72;1.95;;;16.70;81.70;;;;;;5115027;28;20031;-63
2022/07/07 06:40:36;;;;;;;6.05;2.60;;;16.90;81.20;;;;;;5116176;28;20020;-64
2022/07/07 06:43:02;;;;;;;6.38;1.90;;;17.10;80.60;;;;;;5114293;28;20031;-63
2022/07/07 06:45:29;;;;;;;6.25;1.98;;;16.90;79.30;;;;;;5112039;28;20428;-63
2022/07/07 06:47:55;;;;;;;6.40;2.08;;;16.70;79.60;;;;;;5115990;28;20378;-63
2022/07/07 06:50:24;;;;;;;5.47;2.25;;;16.50;80.60;;;;;;5116246;28;20016;-65
2022/07/07 06:52:49;;;;;;;5.13;1.98;;;16.50;81.00;;;;;;5114854;28;20466;-65
2022/07/07 06:55:15;;;;;;;7.85;2.13;;;16.60;80.10;;;;;;5114092;28;20035;-64
2022/07/07 06:57:41;;;;;;;4.55;1.80;;;16.70;79.80;;;;;;5113030;28;20028;-64
2022/07/07 07:00:08;;;;;;;9.90;1.90;;;16.90;80.10;;;;;;5112267;28;20469;-64
2022/07/07 07:02:40;;;;;;;5.93;1.80;;;17.40;80.60;;;;;;5116073;28;20106;-64
2022/07/07 07:05:06;;;;;;;6.65;2.35;;;17.70;78.90;;;;;;5115995;28;20027;-64
2022/07/07 07:07:32;;;;;;;6.53;2.30;;;17.80;77.80;;;;;;5112905;28;20073;-64
2022/07/07 07:09:57;;;;;;;6.00;2.13;;;17.70;77.70;;;;;;5115090;28;20413;-64
2022/07/07 07:12:23;;;;;;;7.95;2.00;;;17.60;78.80;;;;;;5113707;28;20056;-64
2022/07/07 07:14:48;;;;;;;7.72;2.45;;;17.50;78.50;;;;;;5115130;28;20052;-64
2022/07/07 07:17:15;;;;;;;7.10;2.47;;;17.60;79.10;;;;;;5114958;28;20069;-64
2022/07/07 07:19:40;;;;;;;7.90;2.17;;;17.90;77.90;;;;;;5113559;28;20410;-64
2022/07/07 07:22:06;;;;;;;7.10;2.13;;;18.00;78.10;;;;;;5113526;28;20034;-64
2022/07/07 07:24:32;;;;;;;5.18;2.03;;;18.00;77.50;;;;;;5114850;28;20027;-64
2022/07/07 07:26:57;;;;;;;6.28;2.22;;;18.00;77.30;;;;;;5115817;28;20095;-64
2022/07/07 07:29:23;;;;;;;5.68;2.05;;;18.50;76.60;;;;;;5111483;28;20020;-64
2022/07/07 07:31:48;;;;;;;8.05;2.17;;;19.30;75.40;;;;;;5122541;27;20031;-64
2022/07/07 07:34:14;;;;;;;7.40;2.05;;;20.00;73.20;;;;;;5119448;28;20050;-64
2022/07/07 07:36:40;;;;;;;6.53;2.38;;;19.60;73.60;;;;;;5118147;28;20521;-64
2022/07/07 07:39:06;;;;;;;6.68;2.25;;;19.10;74.30;;;;;;5121361;27;20055;-65
2022/07/07 07:41:32;;;;;;;8.15;2.20;;;18.80;75.50;;;;;;5118462;28;20093;-64
2022/07/07 07:43:58;;;;;;;7.28;1.95;;;19.10;75.60;;;;;;5114014;28;20075;-64
2022/07/07 07:46:23;;;;;;;7.57;2.20;;;19.40;74.50;;;;;;5116555;28;20139;-64
2022/07/07 07:48:49;;;;;;;6.45;2.47;;;19.80;74.30;;;;;;5118173;28;20027;-63
2022/07/07 07:51:15;;;;;;;6.65;2.20;;;19.70;73.90;;;;;;5116152;28;20019;-64
2022/07/07 07:53:40;;;;;;;8.52;2.33;;;19.40;75.60;;;;;;5119148;28;20286;-64
2022/07/07 07:56:06;;;;;;;9.73;2.55;;;19.30;76.60;;;;;;5116678;28;20023;-64
2022/07/07 07:58:32;;;;;;;7.63;2.40;;;19.20;74.70;;;;;;5118861;28;20035;-64
2022/07/07 08:00:58;;;;;;;8.07;2.42;;;19.10;76.00;;;;;;5118585;28;20091;-64
2022/07/07 08:03:23;;;;;;;5.88;2.05;;;19.20;76.00;;;;;;5116667;28;20055;-64
2022/07/07 08:05:49;;;;;;;6.07;2.30;;;19.30;76.30;;;;;;5118036;28;20026;-64
2022/07/07 08:08:15;;;;;;;5.90;2.05;;;19.50;75.40;;;;;;5122048;27;20027;-64
2022/07/07 08:10:41;;;;;;;6.35;2.10;;;19.50;74.90;;;;;;5133327;27;20316;-64
2022/07/07 08:13:06;;;;;;;5.22;2.35;;;19.80;75.30;;;;;;5118659;28;20024;-64
2022/07/07 08:15:32;;;;;;;4.60;1.80;;;20.00;73.30;;;;;;5117732;28;20027;-64
2022/07/07 08:17:58;;;;;;;7.35;2.13;;;20.40;73.50;;;;;;5116937;28;20125;-64
2022/07/07 08:20:23;;;;;;;8.32;1.90;;;20.80;72.80;;;;;;5116032;28;20340;-64
2022/07/07 08:22:49;;;;;;;5.45;2.30;;;20.90;71.90;;;;;;5116240;28;20028;-64
2022/07/07 08:25:15;;;;;;;8.77;2.38;;;20.90;72.40;;;;;;5118269;28;20016;-64
2022/07/07 08:27:41;;;;;;;8.25;2.53;;;20.80;71.90;;;;;;5116472;28;20026;-64
2022/07/07 08:30:08;;;;;;;6.97;2.17;;;20.10;73.30;;;;;;5117289;28;20020;-64
2022/07/07 08:32:33;;;;;;;6.47;2.10;;;19.90;74.40;;;;;;5117334;27;20024;-64
2022/07/07 08:34:59;;;;;;;5.47;2.10;;;19.90;73.60;;;;;;5115919;28;20039;-64
2022/07/07 08:37:25;;;;;;;6.40;2.22;;;19.50;74.50;;;;;;5113933;27;20047;-64
2022/07/07 08:39:51;;;;;;;6.72;2.53;;;19.30;75.00;;;;;;5118114;28;20325;-64
2022/07/07 08:42:17;;;;;;;6.68;2.20;;;19.20;75.80;;;;;;5116868;28;20035;-64
2022/07/07 08:44:43;;;;;;;8.32;2.15;;;19.10;75.60;;;;;;5119705;27;20040;-64
2022/07/07 08:47:11;;;;;;;8.18;3.45;;;19.00;75.90;;;;;;5116928;28;20047;-64
2022/07/07 08:49:37;;;;;;;8.38;2.70;;;18.80;76.20;;;;;;5127530;27;20024;-64
2022/07/07 08:52:04;;;;;;;5.63;2.55;;;18.30;77.50;;;;;;5118563;27;20038;-64
2022/07/07 08:54:32;;;;;;;7.60;2.67;;;18.10;78.70;;;;;;5117368;28;20412;-64
2022/07/07 08:56:58;;;;;;;10.52;2.47;;;17.90;79.00;;;;;;5115495;28;20114;-64
2022/07/07 08:59:23;;;;;;;6.35;2.33;;;17.80;80.20;;;;;;5117057;28;20107;-64
2022/07/07 09:01:59;;;;;;;7.05;2.63;;;17.80;79.90;;;;;;5116468;28;20452;-63
2022/07/07 09:04:26;;;;;;;7.38;2.40;;;17.90;80.20;;;;;;5115926;28;20162;-64
2022/07/07 09:07:00;;;;;;;6.32;2.28;;;18.10;79.90;;;;;;5112704;28;20028;-65
2022/07/07 09:09:56;;;;;;;11.30;2.20;;;18.40;79.50;;;;;;5117042;28;20360;-64
2022/07/07 09:12:22;;;;;;;5.15;2.35;;;18.60;78.30;;;;;;5115441;28;20096;-64
2022/07/07 09:14:50;;;;;;;6.20;2.25;;;18.90;78.20;;;;;;5117552;28;20031;-65
2022/07/07 09:17:30;;;;;;;5.43;2.22;;;19.60;76.30;;;;;;5115255;28;20412;-65
2022/07/07 09:20:05;;;;;;;6.22;2.20;;;19.60;75.20;;;;;;5116547;28;20356;-65
2022/07/07 09:23:00;;;;;;;11.95;2.63;;;19.30;76.30;;;;;;5115988;28;20035;-65
2022/07/07 09:25:27;;;;;;;7.30;2.13;;;19.10;77.50;;;;;;5098450;28;20028;-63
2022/07/07 09:28:04;;;;;;;6.57;2.40;;;18.90;78.70;;;;;;5106139;28;20020;-64
2022/07/07 09:30:41;;;;;;;6.78;2.28;;;18.60;79.90;;;;;;5114654;27;20970;-63
2022/07/07 09:33:11;;;;;;;7.18;2.55;;;18.40;80.60;;;;;;5110853;28;20077;-63
2022/07/07 09:38:24;;;;;;;5.90;2.70;;;18.40;81.00;;;;;;5110290;27;20667;-64
2022/07/07 09:41:11;;;;;;;5.82;2.33;;;18.30;81.00;;;;;;5110328;27;20108;-63
2022/07/07 09:43:53;;;;;;;6.10;2.35;;;18.50;80.90;;;;;;5109787;27;20051;-64
2022/07/07 09:46:25;;;;;;;6.65;2.70;;;18.90;80.60;;;;;;5112134;27;20051;-63
2022/07/07 09:48:51;;;;;;;5.75;2.88;;;19.40;78.60;;;;;;5111863;27;20080;-65
2022/07/07 09:51:36;;;;;;;9.55;2.35;;;19.60;78.30;;;;;;5113359;28;20379;-65
2022/07/07 09:54:12;;;;;;;6.03;2.17;;;19.90;77.60;;;;;;5114046;28;20076;-65
2022/07/07 09:56:42;;;;;;;4.50;2.17;;;20.70;75.90;;;;;;5113467;27;20498;-64
2022/07/07 09:59:10;;;;;;;6.07;2.15;;;21.30;73.70;;;;;;5115380;27;20028;-64
2022/07/07 10:01:42;;;;;;;10.77;2.75;;;21.60;72.80;;;;;;5116520;27;20039;-63
2022/07/07 10:04:19;;;;;;;7.72;2.63;;;21.30;72.70;;;;;;5113860;28;20016;-65
2022/07/07 10:06:45;;;;;;;7.05;2.20;;;21.00;72.70;;;;;;5114440;27;20042;-64
2022/07/07 10:09:19;;;;;;;10.68;2.33;;;20.40;75.10;;;;;;5114183;28;20099;-64
2022/07/07 10:11:51;;;;;;;7.35;2.42;;;20.20;76.20;;;;;;5113912;28;20086;-65
2022/07/07 10:14:24;;;;;;;11.80;3.50;;;20.00;76.80;;;;;;5114422;27;20378;-65
2022/07/07 10:16:58;;;;;;;6.10;2.20;;;20.00;77.10;;;;;;5114850;28;20030;-65
2022/07/07 10:19:24;;;;;;;;;;;20.20;76.40;;;;;;5113807;28;20027;-63
2022/07/07 10:21:56;;;;;;;8.30;3.30;;;19.90;77.00;;;;;;5113871;28;19919;-63
2022/07/07 10:24:25;;;;;;;6.22;2.88;;;19.50;77.00;;;;;;5113828;28;20035;-64
2022/07/07 10:26:55;;;;;;;7.93;2.60;;;19.40;76.80;;;;;;5116427;28;20019;-63
2022/07/07 10:29:43;;;;;;;9.15;2.20;;;19.50;77.10;;;;;;5112937;28;20019;-65
2022/07/07 10:32:16;;;;;;;8.25;2.40;;;19.60;77.00;;;;;;5113338;28;20065;-64
2022/07/07 10:35:02;;;;;;;9.57;2.72;;;19.40;77.80;;;;;;5116486;28;20023;-63
2022/07/07 10:37:27;;;;;;;7.28;3.00;;;19.10;78.60;;;;;;5117231;28;20106;-64
2022/07/07 10:39:56;;;;;;;4.82;2.17;;;19.00;79.10;;;;;;5110513;28;20114;-64
2022/07/07 10:42:59;;;;;;;8.13;2.97;;;19.00;79.20;;;;;;5105986;28;20038;-64
2022/07/07 10:45:26;;;;;;;9.35;2.53;;;19.00;79.30;;;;;;5082822;28;20051;-64
2022/07/07 10:47:51;;;;;;;8.93;2.60;;;18.70;79.90;;;;;;5104272;28;20313;-64
2022/07/07 10:50:32;;;;;;;6.88;2.60;;;18.60;80.40;;;;;;5114204;28;20023;-64
2022/07/07 10:52:59;;;;;;;8.75;2.80;;;18.40;80.90;;;;;;5112437;28;20055;-64
2022/07/07 10:55:53;;;;;;;7.60;2.53;;;18.30;81.00;;;;;;5117712;28;20027;-64
2022/07/07 10:58:44;;;;;;;6.70;2.60;;;18.30;81.60;;;;;;5111177;28;20097;-64
2022/07/07 11:01:10;;;;;;;6.00;2.25;;;18.30;81.90;;;;;;5122628;28;20027;-64
2022/07/07 11:03:39;;;;;;;7.13;2.50;;;18.50;81.50;;;;;;5124812;28;20027;-64
2022/07/07 11:06:05;;;;;;;7.38;2.50;;;18.60;81.00;;;;;;5116176;28;20062;-64
2022/07/07 11:08:36;;;;;;;9.35;2.40;;;18.80;80.50;;;;;;5116562;28;20016;-64
2022/07/07 11:11:04;;;;;;;4.45;1.77;;;19.00;80.00;;;;;;5118166;28;20020;-64
2022/07/07 11:13:38;;;;;;;9.65;2.38;;;19.30;79.10;;;;;;5115243;28;20106;-64
2022/07/07 11:16:18;;;;;;;8.15;4.32;;;19.70;77.90;;;;;;5124901;27;20046;-64
2022/07/07 11:18:54;;;;;;;7.80;2.10;;;20.20;77.20;;;;;;5117279;27;20086;-64
2022/07/07 11:21:38;;;;;;;6.63;2.00;;;20.60;76.10;;;;;;5116265;28;20043;-64
2022/07/07 11:24:13;;;;;;;5.70;2.65;;;20.60;75.20;;;;;;5113332;27;20027;-64
2022/07/07 11:26:38;;;;;;;5.40;2.50;;;20.60;76.00;;;;;;5117560;27;20033;-65
2022/07/07 11:29:05;;;;;;;9.68;2.95;;;20.60;76.00;;;;;;5118736;27;20102;-64
2022/07/07 11:31:31;;;;;;;5.22;2.10;;;20.40;75.70;;;;;;5116513;27;20036;-64
2022/07/07 11:33:57;;;;;;;10.13;2.42;;;20.30;76.00;;;;;;5115914;27;20020;-64
2022/07/07 11:36:24;;;;;;;6.57;2.45;;;20.30;76.70;;;;;;5113639;28;20032;-64
2022/07/07 11:38:57;;;;;;;6.70;2.50;;;20.20;76.70;;;;;;5110698;27;20444;-63
2022/07/07 11:41:45;;;;;;;9.50;3.42;;;19.80;77.40;;;;;;5115351;27;20046;-65
2022/07/07 11:44:21;;;;;;;5.45;2.10;;;19.40;79.30;;;;;;5115467;27;20121;-64
2022/07/07 11:46:49;;;;;;;7.30;2.05;;;19.20;79.50;;;;;;5116401;28;20072;-63
2022/07/07 11:49:17;;;;;;;4.50;2.20;;;19.10;79.60;;;;;;5116827;28;20022;-64
2022/07/07 11:51:44;;;;;;;6.97;2.58;;;18.90;79.70;;;;;;5115736;28;20030;-64
2022/07/07 11:54:11;;;;;;;6.10;2.00;;;18.90;81.30;;;;;;5119471;27;20031;-64
2022/07/07 11:56:37;;;;;;;5.80;2.08;;;19.10;80.80;;;;;;5117648;28;20020;-64
2022/07/07 11:59:04;;;;;;;9.57;2.40;;;19.10;80.30;;;;;;5115677;27;20485;-64
2022/07/07 12:01:37;;;;;;;4.47;2.20;;;19.10;80.70;;;;;;5119519;27;20081;-64
2022/07/07 12:04:23;;;;;;;7.53;2.40;;;19.10;81.00;;;;;;5118362;28;20416;-64
2022/07/07 12:06:50;;;;;;;6.47;2.60;;;19.10;80.20;;;;;;5116718;28;20081;-64
2022/07/07 12:09:16;;;;;;;5.18;2.42;;;19.00;80.40;;;;;;5118848;28;20023;-64
2022/07/07 12:11:43;;;;;;;5.05;2.33;;;18.90;81.20;;;;;;5117597;28;20031;-64
2022/07/07 12:14:11;;;;;;;8.00;2.22;;;18.80;81.00;;;;;;5118712;28;20294;-64
2022/07/07 12:16:49;;;;;;;8.15;2.60;;;18.80;81.30;;;;;;5121953;27;20324;-64
2022/07/07 12:19:15;;;;;;;12.68;2.50;;;19.10;81.40;;;;;;5118516;27;20448;-64
2022/07/07 12:21:46;;;;;;;7.15;2.20;;;19.70;79.30;;;;;;5116379;28;20110;-64
2022/07/07 12:24:13;;;;;;;7.93;2.30;;;20.10;78.50;;;;;;5118375;28;20077;-65
2022/07/07 12:26:50;;;;;;;5.65;2.42;;;20.50;77.20;;;;;;5117351;28;20027;-64
2022/07/07 12:29:21;;;;;;;4.95;2.03;;;20.30;76.90;;;;;;5104287;28;20031;-64
2022/07/07 12:31:48;;;;;;;7.75;2.10;;;19.90;77.50;;;;;;5116906;28;20115;-64
2022/07/07 12:34:16;;;;;;;5.95;2.08;;;19.30;78.80;;;;;;5117272;28;20031;-63
2022/07/07 12:36:43;;;;;;;5.88;2.30;;;19.00;79.50;;;;;;5115993;28;20039;-63
2022/07/07 12:39:09;;;;;;;4.35;1.88;;;18.70;80.40;;;;;;5117422;28;20012;-64
2022/07/07 12:41:37;;;;;;;6.60;2.22;;;18.60;80.40;;;;;;5118171;28;20035;-66
2022/07/07 12:44:26;;;;;;;4.25;2.22;;;18.50;81.20;;;;;;5117085;28;20047;-65
2022/07/07 12:46:56;;;;;;;7.22;2.40;;;18.60;81.00;;;;;;5111057;28;20035;-65
2022/07/07 12:49:22;;;;;;;6.75;2.17;;;18.60;81.40;;;;;;5117116;28;20015;-64
2022/07/07 12:51:51;;;;;;;7.90;2.13;;;18.70;80.80;;;;;;5116841;28;20016;-65
2022/07/07 12:54:29;;;;;;;7.72;2.53;;;18.80;81.10;;;;;;5116990;28;20027;-64
2022/07/07 12:57:03;;;;;;;7.00;2.05;;;18.90;80.90;;;;;;5115490;27;20023;-65